Apalachin, New York
Current Conditions -  °F | °C
As of 8:53 AM on Wednesday 26 Nov 2014 (Local Time) from KBGM Reporting Station
Overcast Overcast  
Wind Chill: 26°   Ceiling: 9000
Heat Index: 31°   Visibility: 10mi
Dew Point: 24°   Wind: 5mph
Humidity: 76%   Direction: 360°N
Pressure: 30.13"   Gusts: NA
Location:  42.07°N, 76.15°W
Report Text: KBGM 261353Z 36004KT 10SM BKN090 OVC110 M01/M04 A3013 RMK AO2 PRESRR SLP220 T10061044
Loading
Personal Weather Stations






























Interactive Weather Map New forecast layout! Learn more

10-Day Weather Forecast

Advertisements
Track Severe Weather on mobile